sensor_id;sensor_type;location;lat;lon;timestamp;P1;durP1;ratioP1;P2;durP2;ratioP2
39880;SDS011;25554;44.954;10.068;2023-02-15T00:01:22;64.55;;;24.13;;
39880;SDS011;25554;44.954;10.068;2023-02-15T00:03:48;52.63;;;22.00;;
39880;SDS011;25554;44.954;10.068;2023-02-15T00:06:15;52.40;;;22.63;;
39880;SDS011;25554;44.954;10.068;2023-02-15T00:08:42;54.05;;;22.20;;
39880;SDS011;25554;44.954;10.068;2023-02-15T00:11:10;53.30;;;21.58;;
39880;SDS011;25554;44.954;10.068;2023-02-15T00:13:37;51.08;;;23.35;;
39880;SDS011;25554;44.954;10.068;2023-02-15T00:16:07;59.22;;;23.02;;
39880;SDS011;25554;44.954;10.068;2023-02-15T00:18:34;55.67;;;22.35;;
39880;SDS011;25554;44.954;10.068;2023-02-15T00:21:07;53.47;;;22.00;;
39880;SDS011;25554;44.954;10.068;2023-02-15T00:23:34;64.63;;;23.95;;
39880;SDS011;25554;44.954;10.068;2023-02-15T00:26:08;56.90;;;24.95;;
39880;SDS011;25554;44.954;10.068;2023-02-15T00:28:35;51.25;;;20.52;;
39880;SDS011;25554;44.954;10.068;2023-02-15T00:31:05;51.67;;;23.20;;
39880;SDS011;25554;44.954;10.068;2023-02-15T00:33:34;51.88;;;23.15;;
39880;SDS011;25554;44.954;10.068;2023-02-15T00:36:02;57.60;;;22.58;;
39880;SDS011;25554;44.954;10.068;2023-02-15T00:38:29;54.95;;;21.33;;
39880;SDS011;25554;44.954;10.068;2023-02-15T00:40:56;55.00;;;22.40;;
39880;SDS011;25554;44.954;10.068;2023-02-15T00:43:23;58.55;;;22.75;;
39880;SDS011;25554;44.954;10.068;2023-02-15T00:45:50;56.10;;;22.23;;
39880;SDS011;25554;44.954;10.068;2023-02-15T00:48:17;51.72;;;21.17;;
39880;SDS011;25554;44.954;10.068;2023-02-15T00:50:45;59.20;;;23.73;;
39880;SDS011;25554;44.954;10.068;2023-02-15T00:53:12;56.42;;;23.70;;
39880;SDS011;25554;44.954;10.068;2023-02-15T00:55:39;56.63;;;23.77;;
39880;SDS011;25554;44.954;10.068;2023-02-15T00:58:06;45.08;;;20.65;;
39880;SDS011;25554;44.954;10.068;2023-02-15T01:00:32;65.15;;;22.25;;
39880;SDS011;25554;44.954;10.068;2023-02-15T01:02:59;54.88;;;22.08;;
39880;SDS011;25554;44.954;10.068;2023-02-15T01:05:26;61.53;;;22.77;;
39880;SDS011;25554;44.954;10.068;2023-02-15T01:07:52;56.67;;;23.83;;
39880;SDS011;25554;44.954;10.068;2023-02-15T01:10:19;52.72;;;21.35;;
39880;SDS011;25554;44.954;10.068;2023-02-15T01:12:46;54.20;;;21.15;;
39880;SDS011;25554;44.954;10.068;2023-02-15T01:15:12;44.92;;;19.85;;
39880;SDS011;25554;44.954;10.068;2023-02-15T01:17:39;51.28;;;21.92;;
39880;SDS011;25554;44.954;10.068;2023-02-15T01:20:06;55.28;;;22.88;;
39880;SDS011;25554;44.954;10.068;2023-02-15T01:22:33;56.78;;;23.20;;
39880;SDS011;25554;44.954;10.068;2023-02-15T01:25:00;50.72;;;21.42;;
39880;SDS011;25554;44.954;10.068;2023-02-15T01:27:28;54.88;;;21.25;;
39880;SDS011;25554;44.954;10.068;2023-02-15T01:29:58;53.67;;;22.92;;
39880;SDS011;25554;44.954;10.068;2023-02-15T01:32:24;52.00;;;21.80;;
39880;SDS011;25554;44.954;10.068;2023-02-15T01:34:52;52.72;;;23.42;;
39880;SDS011;25554;44.954;10.068;2023-02-15T01:37:19;56.95;;;22.75;;
39880;SDS011;25554;44.954;10.068;2023-02-15T01:39:45;57.30;;;21.23;;
39880;SDS011;25554;44.954;10.068;2023-02-15T01:42:14;51.38;;;20.85;;
39880;SDS011;25554;44.954;10.068;2023-02-15T01:44:51;57.70;;;21.63;;
39880;SDS011;25554;44.954;10.068;2023-02-15T01:47:23;57.20;;;21.92;;
39880;SDS011;25554;44.954;10.068;2023-02-15T01:49:55;55.05;;;21.45;;
39880;SDS011;25554;44.954;10.068;2023-02-15T01:52:24;57.13;;;23.40;;
39880;SDS011;25554;44.954;10.068;2023-02-15T01:54:51;60.13;;;23.02;;
39880;SDS011;25554;44.954;10.068;2023-02-15T01:57:19;55.17;;;22.27;;
39880;SDS011;25554;44.954;10.068;2023-02-15T01:59:49;53.28;;;20.80;;
39880;SDS011;25554;44.954;10.068;2023-02-15T02:02:18;50.75;;;21.85;;
39880;SDS011;25554;44.954;10.068;2023-02-15T02:07:13;55.80;;;21.98;;
39880;SDS011;25554;44.954;10.068;2023-02-15T02:09:41;52.28;;;21.20;;
39880;SDS011;25554;44.954;10.068;2023-02-15T02:12:07;52.60;;;21.95;;
39880;SDS011;25554;44.954;10.068;2023-02-15T02:14:35;51.08;;;22.02;;
39880;SDS011;25554;44.954;10.068;2023-02-15T02:17:21;51.85;;;20.35;;
39880;SDS011;25554;44.954;10.068;2023-02-15T02:31:43;55.03;;;21.73;;
39880;SDS011;25554;44.954;10.068;2023-02-15T02:46:58;63.30;;;21.50;;
39880;SDS011;25554;44.954;10.068;2023-02-15T02:51:58;51.10;;;21.02;;
39880;SDS011;25554;44.954;10.068;2023-02-15T02:54:24;56.30;;;23.52;;
39880;SDS011;25554;44.954;10.068;2023-02-15T02:56:51;47.17;;;21.05;;
39880;SDS011;25554;44.954;10.068;2023-02-15T02:59:20;51.17;;;22.15;;
39880;SDS011;25554;44.954;10.068;2023-02-15T03:01:51;67.63;;;23.70;;
39880;SDS011;25554;44.954;10.068;2023-02-15T03:04:22;92.68;;;25.02;;
39880;SDS011;25554;44.954;10.068;2023-02-15T03:07:11;53.55;;;20.58;;
39880;SDS011;25554;44.954;10.068;2023-02-15T03:09:38;56.60;;;22.55;;
39880;SDS011;25554;44.954;10.068;2023-02-15T03:12:13;56.55;;;22.25;;
39880;SDS011;25554;44.954;10.068;2023-02-15T03:14:44;51.53;;;22.27;;
39880;SDS011;25554;44.954;10.068;2023-02-15T03:17:11;55.90;;;21.73;;
39880;SDS011;25554;44.954;10.068;2023-02-15T03:19:39;51.38;;;21.55;;
39880;SDS011;25554;44.954;10.068;2023-02-15T03:22:08;54.92;;;21.58;;
39880;SDS011;25554;44.954;10.068;2023-02-15T03:24:41;56.10;;;23.85;;
39880;SDS011;25554;44.954;10.068;2023-02-15T03:27:17;55.20;;;22.45;;
39880;SDS011;25554;44.954;10.068;2023-02-15T03:29:46;50.17;;;22.58;;
39880;SDS011;25554;44.954;10.068;2023-02-15T03:32:15;60.55;;;22.73;;
39880;SDS011;25554;44.954;10.068;2023-02-15T03:34:42;57.25;;;22.83;;
39880;SDS011;25554;44.954;10.068;2023-02-15T03:45:02;56.13;;;23.42;;
39880;SDS011;25554;44.954;10.068;2023-02-15T03:47:31;59.58;;;22.73;;
39880;SDS011;25554;44.954;10.068;2023-02-15T03:52:28;52.17;;;20.75;;
39880;SDS011;25554;44.954;10.068;2023-02-15T03:54:56;53.20;;;21.27;;
39880;SDS011;25554;44.954;10.068;2023-02-15T03:57:24;58.92;;;22.23;;
39880;SDS011;25554;44.954;10.068;2023-02-15T04:00:12;53.63;;;22.20;;
39880;SDS011;25554;44.954;10.068;2023-02-15T04:05:56;63.47;;;24.67;;
39880;SDS011;25554;44.954;10.068;2023-02-15T04:08:23;64.68;;;23.05;;
39880;SDS011;25554;44.954;10.068;2023-02-15T04:11:09;62.83;;;23.27;;
39880;SDS011;25554;44.954;10.068;2023-02-15T04:13:36;65.70;;;23.67;;
39880;SDS011;25554;44.954;10.068;2023-02-15T04:16:03;58.50;;;23.58;;
39880;SDS011;25554;44.954;10.068;2023-02-15T04:21:14;52.83;;;22.08;;
39880;SDS011;25554;44.954;10.068;2023-02-15T04:24:00;50.42;;;21.40;;
39880;SDS011;25554;44.954;10.068;2023-02-15T04:26:45;55.42;;;21.08;;
39880;SDS011;25554;44.954;10.068;2023-02-15T04:29:14;56.20;;;21.40;;
39880;SDS011;25554;44.954;10.068;2023-02-15T04:31:41;57.40;;;23.33;;
39880;SDS011;25554;44.954;10.068;2023-02-15T04:34:08;51.75;;;20.95;;
39880;SDS011;25554;44.954;10.068;2023-02-15T04:36:39;55.03;;;20.05;;
39880;SDS011;25554;44.954;10.068;2023-02-15T04:39:06;50.78;;;20.70;;
39880;SDS011;25554;44.954;10.068;2023-02-15T04:41:33;59.83;;;21.98;;
39880;SDS011;25554;44.954;10.068;2023-02-15T04:44:00;57.65;;;21.70;;
39880;SDS011;25554;44.954;10.068;2023-02-15T04:46:27;59.53;;;20.10;;
39880;SDS011;25554;44.954;10.068;2023-02-15T04:48:55;64.57;;;20.70;;
39880;SDS011;25554;44.954;10.068;2023-02-15T04:51:21;53.60;;;22.48;;
39880;SDS011;25554;44.954;10.068;2023-02-15T04:53:48;53.95;;;21.33;;
39880;SDS011;25554;44.954;10.068;2023-02-15T04:56:15;50.78;;;20.02;;
39880;SDS011;25554;44.954;10.068;2023-02-15T04:58:41;48.30;;;20.58;;
39880;SDS011;25554;44.954;10.068;2023-02-15T05:01:08;50.22;;;18.70;;
39880;SDS011;25554;44.954;10.068;2023-02-15T05:03:35;47.60;;;19.05;;
39880;SDS011;25554;44.954;10.068;2023-02-15T05:06:01;45.47;;;17.92;;
39880;SDS011;25554;44.954;10.068;2023-02-15T05:08:28;49.63;;;19.45;;
39880;SDS011;25554;44.954;10.068;2023-02-15T05:10:56;42.58;;;16.75;;
39880;SDS011;25554;44.954;10.068;2023-02-15T05:13:22;45.80;;;20.27;;
39880;SDS011;25554;44.954;10.068;2023-02-15T05:15:49;46.67;;;18.73;;
39880;SDS011;25554;44.954;10.068;2023-02-15T05:18:17;44.78;;;18.98;;
39880;SDS011;25554;44.954;10.068;2023-02-15T05:20:45;47.15;;;19.05;;
39880;SDS011;25554;44.954;10.068;2023-02-15T05:23:11;57.28;;;20.50;;
39880;SDS011;25554;44.954;10.068;2023-02-15T05:25:38;53.45;;;18.52;;
39880;SDS011;25554;44.954;10.068;2023-02-15T05:28:24;45.95;;;19.40;;
39880;SDS011;25554;44.954;10.068;2023-02-15T05:31:10;51.60;;;20.50;;
39880;SDS011;25554;44.954;10.068;2023-02-15T05:33:39;50.85;;;19.25;;
39880;SDS011;25554;44.954;10.068;2023-02-15T05:36:06;52.20;;;20.20;;
39880;SDS011;25554;44.954;10.068;2023-02-15T05:38:33;45.50;;;18.98;;
39880;SDS011;25554;44.954;10.068;2023-02-15T05:40:59;65.18;;;19.58;;
39880;SDS011;25554;44.954;10.068;2023-02-15T05:43:26;59.40;;;20.23;;
39880;SDS011;25554;44.954;10.068;2023-02-15T05:45:53;44.17;;;17.20;;
39880;SDS011;25554;44.954;10.068;2023-02-15T05:48:20;44.97;;;18.70;;
39880;SDS011;25554;44.954;10.068;2023-02-15T05:53:25;45.90;;;16.38;;
39880;SDS011;25554;44.954;10.068;2023-02-15T05:55:52;66.68;;;19.17;;
39880;SDS011;25554;44.954;10.068;2023-02-15T05:58:19;48.88;;;17.58;;
39880;SDS011;25554;44.954;10.068;2023-02-15T06:00:46;44.03;;;17.48;;
39880;SDS011;25554;44.954;10.068;2023-02-15T06:03:12;51.40;;;17.55;;
39880;SDS011;25554;44.954;10.068;2023-02-15T06:05:39;44.38;;;17.33;;
39880;SDS011;25554;44.954;10.068;2023-02-15T06:08:05;42.83;;;16.67;;
39880;SDS011;25554;44.954;10.068;2023-02-15T06:10:32;49.10;;;17.52;;
39880;SDS011;25554;44.954;10.068;2023-02-15T06:12:59;43.80;;;17.50;;
39880;SDS011;25554;44.954;10.068;2023-02-15T06:15:25;45.53;;;18.42;;
39880;SDS011;25554;44.954;10.068;2023-02-15T06:17:52;54.45;;;20.27;;
39880;SDS011;25554;44.954;10.068;2023-02-15T06:20:18;45.00;;;17.38;;
39880;SDS011;25554;44.954;10.068;2023-02-15T06:22:45;54.72;;;18.88;;
39880;SDS011;25554;44.954;10.068;2023-02-15T06:25:12;48.50;;;17.90;;
39880;SDS011;25554;44.954;10.068;2023-02-15T06:27:40;49.83;;;17.95;;
39880;SDS011;25554;44.954;10.068;2023-02-15T06:30:07;58.72;;;19.90;;
39880;SDS011;25554;44.954;10.068;2023-02-15T06:32:34;44.67;;;17.85;;
39880;SDS011;25554;44.954;10.068;2023-02-15T06:35:01;54.75;;;19.00;;
39880;SDS011;25554;44.954;10.068;2023-02-15T06:37:28;41.22;;;17.83;;
39880;SDS011;25554;44.954;10.068;2023-02-15T06:39:55;51.15;;;20.95;;
39880;SDS011;25554;44.954;10.068;2023-02-15T06:42:22;48.70;;;18.38;;
39880;SDS011;25554;44.954;10.068;2023-02-15T06:44:48;37.67;;;16.88;;
39880;SDS011;25554;44.954;10.068;2023-02-15T06:47:15;39.92;;;17.13;;
39880;SDS011;25554;44.954;10.068;2023-02-15T06:49:41;41.25;;;16.88;;
39880;SDS011;25554;44.954;10.068;2023-02-15T06:52:08;45.45;;;19.50;;
39880;SDS011;25554;44.954;10.068;2023-02-15T06:54:34;52.92;;;21.48;;
39880;SDS011;25554;44.954;10.068;2023-02-15T06:57:01;57.65;;;23.83;;
39880;SDS011;25554;44.954;10.068;2023-02-15T06:59:28;54.40;;;24.15;;
39880;SDS011;25554;44.954;10.068;2023-02-15T07:01:54;45.22;;;20.73;;
39880;SDS011;25554;44.954;10.068;2023-02-15T07:04:21;40.45;;;18.85;;
39880;SDS011;25554;44.954;10.068;2023-02-15T07:06:48;44.90;;;16.25;;
39880;SDS011;25554;44.954;10.068;2023-02-15T07:09:14;43.38;;;15.85;;
39880;SDS011;25554;44.954;10.068;2023-02-15T07:11:41;39.63;;;15.70;;
39880;SDS011;25554;44.954;10.068;2023-02-15T07:14:26;47.40;;;17.08;;
39880;SDS011;25554;44.954;10.068;2023-02-15T07:16:53;38.75;;;17.10;;
39880;SDS011;25554;44.954;10.068;2023-02-15T07:19:19;46.40;;;18.25;;
39880;SDS011;25554;44.954;10.068;2023-02-15T07:21:46;53.92;;;19.63;;
39880;SDS011;25554;44.954;10.068;2023-02-15T07:24:12;55.13;;;21.45;;
39880;SDS011;25554;44.954;10.068;2023-02-15T07:26:40;48.30;;;17.80;;
39880;SDS011;25554;44.954;10.068;2023-02-15T07:29:06;52.80;;;18.38;;
39880;SDS011;25554;44.954;10.068;2023-02-15T07:31:33;40.75;;;18.20;;
39880;SDS011;25554;44.954;10.068;2023-02-15T07:33:59;45.05;;;17.63;;
39880;SDS011;25554;44.954;10.068;2023-02-15T07:36:26;41.97;;;17.80;;
39880;SDS011;25554;44.954;10.068;2023-02-15T07:38:52;44.90;;;17.60;;
39880;SDS011;25554;44.954;10.068;2023-02-15T07:41:19;48.90;;;16.92;;
39880;SDS011;25554;44.954;10.068;2023-02-15T07:43:46;49.38;;;18.95;;
39880;SDS011;25554;44.954;10.068;2023-02-15T07:46:13;45.08;;;17.27;;
39880;SDS011;25554;44.954;10.068;2023-02-15T07:48:42;44.70;;;17.40;;
39880;SDS011;25554;44.954;10.068;2023-02-15T07:51:10;37.30;;;15.02;;
39880;SDS011;25554;44.954;10.068;2023-02-15T07:53:37;42.28;;;16.35;;
39880;SDS011;25554;44.954;10.068;2023-02-15T07:56:05;37.88;;;16.17;;
39880;SDS011;25554;44.954;10.068;2023-02-15T07:58:34;44.20;;;16.08;;
39880;SDS011;25554;44.954;10.068;2023-02-15T08:01:17;40.42;;;14.90;;
39880;SDS011;25554;44.954;10.068;2023-02-15T08:03:52;36.22;;;16.10;;
39880;SDS011;25554;44.954;10.068;2023-02-15T08:06:19;36.90;;;15.95;;
39880;SDS011;25554;44.954;10.068;2023-02-15T08:08:47;42.63;;;17.48;;
39880;SDS011;25554;44.954;10.068;2023-02-15T08:11:18;37.03;;;17.52;;
39880;SDS011;25554;44.954;10.068;2023-02-15T08:13:59;35.83;;;16.92;;
39880;SDS011;25554;44.954;10.068;2023-02-15T08:16:30;36.33;;;16.83;;
39880;SDS011;25554;44.954;10.068;2023-02-15T08:19:01;38.70;;;17.75;;
39880;SDS011;25554;44.954;10.068;2023-02-15T08:21:30;48.10;;;20.20;;
39880;SDS011;25554;44.954;10.068;2023-02-15T08:23:57;44.15;;;18.10;;
39880;SDS011;25554;44.954;10.068;2023-02-15T08:26:25;42.30;;;18.67;;
39880;SDS011;25554;44.954;10.068;2023-02-15T08:28:53;40.70;;;19.40;;
39880;SDS011;25554;44.954;10.068;2023-02-15T08:31:20;39.00;;;18.25;;
39880;SDS011;25554;44.954;10.068;2023-02-15T08:33:47;37.15;;;18.83;;
39880;SDS011;25554;44.954;10.068;2023-02-15T08:36:16;41.35;;;18.75;;
39880;SDS011;25554;44.954;10.068;2023-02-15T08:38:44;39.33;;;19.05;;
39880;SDS011;25554;44.954;10.068;2023-02-15T08:46:04;30.55;;;16.13;;
39880;SDS011;25554;44.954;10.068;2023-02-15T08:48:31;33.90;;;16.05;;
39880;SDS011;25554;44.954;10.068;2023-02-15T08:50:58;33.20;;;15.90;;
39880;SDS011;25554;44.954;10.068;2023-02-15T08:53:24;30.10;;;15.48;;
39880;SDS011;25554;44.954;10.068;2023-02-15T08:55:55;38.22;;;16.80;;
39880;SDS011;25554;44.954;10.068;2023-02-15T08:58:25;29.45;;;13.90;;
39880;SDS011;25554;44.954;10.068;2023-02-15T09:00:51;25.58;;;13.45;;
39880;SDS011;25554;44.954;10.068;2023-02-15T09:03:18;35.72;;;13.77;;
39880;SDS011;25554;44.954;10.068;2023-02-15T09:08:10;29.98;;;14.45;;
39880;SDS011;25554;44.954;10.068;2023-02-15T09:10:39;40.30;;;16.05;;
39880;SDS011;25554;44.954;10.068;2023-02-15T09:13:05;31.13;;;15.48;;
39880;SDS011;25554;44.954;10.068;2023-02-15T09:15:32;32.22;;;17.23;;
39880;SDS011;25554;44.954;10.068;2023-02-15T09:17:59;33.35;;;17.48;;
39880;SDS011;25554;44.954;10.068;2023-02-15T09:20:28;37.05;;;19.10;;
39880;SDS011;25554;44.954;10.068;2023-02-15T09:22:54;41.47;;;20.88;;
39880;SDS011;25554;44.954;10.068;2023-02-15T09:25:21;37.95;;;19.58;;
39880;SDS011;25554;44.954;10.068;2023-02-15T09:27:47;38.30;;;21.60;;
39880;SDS011;25554;44.954;10.068;2023-02-15T09:30:14;42.95;;;20.17;;
39880;SDS011;25554;44.954;10.068;2023-02-15T09:32:41;39.70;;;20.67;;
39880;SDS011;25554;44.954;10.068;2023-02-15T09:37:33;43.15;;;21.50;;
39880;SDS011;25554;44.954;10.068;2023-02-15T09:40:00;51.67;;;25.10;;
39880;SDS011;25554;44.954;10.068;2023-02-15T10:20:33;56.25;;;27.60;;
39880;SDS011;25554;44.954;10.068;2023-02-15T10:28:22;62.17;;;28.00;;
39880;SDS011;25554;44.954;10.068;2023-02-15T10:31:04;60.42;;;28.88;;
39880;SDS011;25554;44.954;10.068;2023-02-15T10:36:09;54.50;;;26.95;;
39880;SDS011;25554;44.954;10.068;2023-02-15T10:44:29;63.45;;;28.30;;
39880;SDS011;25554;44.954;10.068;2023-02-15T10:57:43;48.58;;;23.17;;
39880;SDS011;25554;44.954;10.068;2023-02-15T11:10:38;47.55;;;22.38;;
39880;SDS011;25554;44.954;10.068;2023-02-15T11:13:10;43.28;;;21.45;;
39880;SDS011;25554;44.954;10.068;2023-02-15T11:18:11;48.00;;;23.23;;
39880;SDS011;25554;44.954;10.068;2023-02-15T11:23:35;46.97;;;22.05;;
39880;SDS011;25554;44.954;10.068;2023-02-15T11:26:08;45.58;;;22.52;;
39880;SDS011;25554;44.954;10.068;2023-02-15T11:28:42;49.63;;;22.77;;
39880;SDS011;25554;44.954;10.068;2023-02-15T11:31:59;45.22;;;22.73;;
39880;SDS011;25554;44.954;10.068;2023-02-15T11:34:13;44.10;;;21.90;;
39880;SDS011;25554;44.954;10.068;2023-02-15T11:36:46;44.55;;;22.27;;
39880;SDS011;25554;44.954;10.068;2023-02-15T11:39:15;45.75;;;21.20;;
39880;SDS011;25554;44.954;10.068;2023-02-15T11:41:48;44.63;;;22.35;;
39880;SDS011;25554;44.954;10.068;2023-02-15T11:47:02;47.63;;;24.20;;
39880;SDS011;25554;44.954;10.068;2023-02-15T11:49:30;45.20;;;22.17;;
39880;SDS011;25554;44.954;10.068;2023-02-15T11:52:01;51.83;;;24.60;;
39880;SDS011;25554;44.954;10.068;2023-02-15T11:54:31;49.15;;;24.77;;
39880;SDS011;25554;44.954;10.068;2023-02-15T11:57:11;47.90;;;22.65;;
39880;SDS011;25554;44.954;10.068;2023-02-15T11:59:48;48.13;;;22.17;;
39880;SDS011;25554;44.954;10.068;2023-02-15T12:02:19;47.38;;;22.58;;
39880;SDS011;25554;44.954;10.068;2023-02-15T12:04:49;47.55;;;23.08;;
39880;SDS011;25554;44.954;10.068;2023-02-15T12:07:25;46.38;;;23.05;;
39880;SDS011;25554;44.954;10.068;2023-02-15T12:12:31;48.03;;;22.27;;
39880;SDS011;25554;44.954;10.068;2023-02-15T12:15:02;46.35;;;24.80;;
39880;SDS011;25554;44.954;10.068;2023-02-15T12:17:32;49.85;;;23.90;;
39880;SDS011;25554;44.954;10.068;2023-02-15T12:25:29;53.88;;;26.00;;
39880;SDS011;25554;44.954;10.068;2023-02-15T12:28:15;49.55;;;23.95;;
39880;SDS011;25554;44.954;10.068;2023-02-15T12:30:48;44.38;;;22.90;;
39880;SDS011;25554;44.954;10.068;2023-02-15T12:36:00;51.70;;;23.73;;
39880;SDS011;25554;44.954;10.068;2023-02-15T12:38:36;46.20;;;23.75;;
39880;SDS011;25554;44.954;10.068;2023-02-15T12:41:05;51.30;;;25.88;;
39880;SDS011;25554;44.954;10.068;2023-02-15T12:44:02;46.35;;;24.65;;
39880;SDS011;25554;44.954;10.068;2023-02-15T12:46:40;52.10;;;26.20;;
39880;SDS011;25554;44.954;10.068;2023-02-15T12:51:50;48.65;;;23.95;;
39880;SDS011;25554;44.954;10.068;2023-02-15T12:54:31;50.72;;;25.73;;
39880;SDS011;25554;44.954;10.068;2023-02-15T12:59:47;54.63;;;27.85;;
39880;SDS011;25554;44.954;10.068;2023-02-15T13:02:25;53.50;;;26.88;;
39880;SDS011;25554;44.954;10.068;2023-02-15T13:07:56;52.42;;;27.02;;
39880;SDS011;25554;44.954;10.068;2023-02-15T13:10:28;52.17;;;26.05;;
39880;SDS011;25554;44.954;10.068;2023-02-15T13:13:08;57.20;;;26.88;;
39880;SDS011;25554;44.954;10.068;2023-02-15T13:15:40;54.22;;;26.13;;
39880;SDS011;25554;44.954;10.068;2023-02-15T13:18:52;57.17;;;28.67;;
39880;SDS011;25554;44.954;10.068;2023-02-15T13:21:10;55.53;;;27.42;;
39880;SDS011;25554;44.954;10.068;2023-02-15T13:23:42;55.42;;;26.88;;
39880;SDS011;25554;44.954;10.068;2023-02-15T13:26:18;54.53;;;27.58;;
39880;SDS011;25554;44.954;10.068;2023-02-15T13:28:48;52.83;;;26.88;;
39880;SDS011;25554;44.954;10.068;2023-02-15T13:31:19;56.58;;;27.77;;
39880;SDS011;25554;44.954;10.068;2023-02-15T13:33:53;54.00;;;27.67;;
39880;SDS011;25554;44.954;10.068;2023-02-15T13:41:53;53.70;;;27.05;;
39880;SDS011;25554;44.954;10.068;2023-02-15T13:52:56;55.72;;;27.67;;
39880;SDS011;25554;44.954;10.068;2023-02-15T13:55:52;49.17;;;26.25;;
39880;SDS011;25554;44.954;10.068;2023-02-15T13:58:38;59.20;;;29.52;;
39880;SDS011;25554;44.954;10.068;2023-02-15T14:26:19;52.45;;;25.77;;
39880;SDS011;25554;44.954;10.068;2023-02-15T14:31:47;55.20;;;27.67;;
39880;SDS011;25554;44.954;10.068;2023-02-15T14:34:27;53.70;;;25.05;;
39880;SDS011;25554;44.954;10.068;2023-02-15T14:37:12;50.53;;;25.73;;
39880;SDS011;25554;44.954;10.068;2023-02-15T14:39:50;51.63;;;24.70;;
39880;SDS011;25554;44.954;10.068;2023-02-15T14:42:45;53.15;;;25.95;;
39880;SDS011;25554;44.954;10.068;2023-02-15T14:45:35;57.85;;;26.67;;
39880;SDS011;25554;44.954;10.068;2023-02-15T14:48:51;55.28;;;26.92;;
39880;SDS011;25554;44.954;10.068;2023-02-15T14:51:03;58.20;;;27.65;;
39880;SDS011;25554;44.954;10.068;2023-02-15T14:58:33;52.13;;;24.25;;
39880;SDS011;25554;44.954;10.068;2023-02-15T15:01:06;51.15;;;25.25;;
39880;SDS011;25554;44.954;10.068;2023-02-15T15:03:35;46.88;;;23.88;;
39880;SDS011;25554;44.954;10.068;2023-02-15T15:06:20;47.72;;;23.77;;
39880;SDS011;25554;44.954;10.068;2023-02-15T15:08:55;47.33;;;23.85;;
39880;SDS011;25554;44.954;10.068;2023-02-15T15:13:58;45.65;;;22.63;;
39880;SDS011;25554;44.954;10.068;2023-02-15T15:19:03;45.60;;;22.40;;
39880;SDS011;25554;44.954;10.068;2023-02-15T15:30:02;48.63;;;22.55;;
39880;SDS011;25554;44.954;10.068;2023-02-15T15:41:17;49.97;;;22.45;;
39880;SDS011;25554;44.954;10.068;2023-02-15T15:47:12;48.13;;;22.63;;
39880;SDS011;25554;44.954;10.068;2023-02-15T15:49:47;46.70;;;23.20;;
39880;SDS011;25554;44.954;10.068;2023-02-15T15:52:15;44.63;;;21.67;;
39880;SDS011;25554;44.954;10.068;2023-02-15T15:54:44;57.15;;;24.17;;
39880;SDS011;25554;44.954;10.068;2023-02-15T15:57:38;58.05;;;22.42;;
39880;SDS011;25554;44.954;10.068;2023-02-15T16:00:23;53.58;;;24.30;;
39880;SDS011;25554;44.954;10.068;2023-02-15T16:02:56;51.35;;;22.63;;
39880;SDS011;25554;44.954;10.068;2023-02-15T16:07:54;54.58;;;22.27;;
39880;SDS011;25554;44.954;10.068;2023-02-15T16:12:49;72.72;;;24.45;;
39880;SDS011;25554;44.954;10.068;2023-02-15T16:15:17;65.55;;;23.75;;
39880;SDS011;25554;44.954;10.068;2023-02-15T16:17:47;57.10;;;22.20;;
39880;SDS011;25554;44.954;10.068;2023-02-15T16:22:53;49.30;;;20.85;;
39880;SDS011;25554;44.954;10.068;2023-02-15T16:26:01;45.65;;;21.05;;
39880;SDS011;25554;44.954;10.068;2023-02-15T16:28:50;50.45;;;21.23;;
39880;SDS011;25554;44.954;10.068;2023-02-15T16:31:18;51.67;;;22.60;;
39880;SDS011;25554;44.954;10.068;2023-02-15T16:33:47;61.67;;;24.05;;
39880;SDS011;25554;44.954;10.068;2023-02-15T16:36:24;59.72;;;24.08;;
39880;SDS011;25554;44.954;10.068;2023-02-15T16:43:49;55.88;;;23.80;;
39880;SDS011;25554;44.954;10.068;2023-02-15T16:46:20;71.43;;;25.02;;
39880;SDS011;25554;44.954;10.068;2023-02-15T16:48:48;68.05;;;24.30;;
39880;SDS011;25554;44.954;10.068;2023-02-15T16:51:20;49.92;;;22.98;;
39880;SDS011;25554;44.954;10.068;2023-02-15T16:53:51;62.05;;;25.27;;
39880;SDS011;25554;44.954;10.068;2023-02-15T16:56:22;76.78;;;25.98;;
39880;SDS011;25554;44.954;10.068;2023-02-15T16:58:50;56.42;;;24.17;;
39880;SDS011;25554;44.954;10.068;2023-02-15T17:01:17;51.15;;;22.67;;
39880;SDS011;25554;44.954;10.068;2023-02-15T17:03:47;60.33;;;22.08;;
39880;SDS011;25554;44.954;10.068;2023-02-15T17:06:19;57.30;;;23.48;;
39880;SDS011;25554;44.954;10.068;2023-02-15T17:08:51;70.10;;;25.10;;
39880;SDS011;25554;44.954;10.068;2023-02-15T17:11:21;66.45;;;27.20;;
39880;SDS011;25554;44.954;10.068;2023-02-15T17:16:35;64.70;;;23.95;;
39880;SDS011;25554;44.954;10.068;2023-02-15T17:19:29;60.67;;;24.00;;
39880;SDS011;25554;44.954;10.068;2023-02-15T17:22:02;57.53;;;24.73;;
39880;SDS011;25554;44.954;10.068;2023-02-15T17:31:58;57.88;;;23.90;;
39880;SDS011;25554;44.954;10.068;2023-02-15T17:37:23;55.17;;;24.40;;
39880;SDS011;25554;44.954;10.068;2023-02-15T17:39:50;69.88;;;25.38;;
39880;SDS011;25554;44.954;10.068;2023-02-15T17:42:17;79.00;;;25.35;;
39880;SDS011;25554;44.954;10.068;2023-02-15T17:47:14;70.25;;;25.65;;
39880;SDS011;25554;44.954;10.068;2023-02-15T17:49:47;63.22;;;24.75;;
39880;SDS011;25554;44.954;10.068;2023-02-15T17:52:17;63.13;;;25.83;;
39880;SDS011;25554;44.954;10.068;2023-02-15T17:54:44;59.65;;;22.83;;
39880;SDS011;25554;44.954;10.068;2023-02-15T17:57:29;67.47;;;23.98;;
39880;SDS011;25554;44.954;10.068;2023-02-15T17:59:56;64.68;;;24.83;;
39880;SDS011;25554;44.954;10.068;2023-02-15T18:02:42;70.07;;;25.42;;
39880;SDS011;25554;44.954;10.068;2023-02-15T18:05:27;83.55;;;27.13;;
39880;SDS011;25554;44.954;10.068;2023-02-15T18:08:16;64.97;;;25.38;;
39880;SDS011;25554;44.954;10.068;2023-02-15T18:11:04;59.70;;;23.95;;
39880;SDS011;25554;44.954;10.068;2023-02-15T18:13:49;72.43;;;25.58;;
39880;SDS011;25554;44.954;10.068;2023-02-15T18:18:47;57.20;;;23.85;;
39880;SDS011;25554;44.954;10.068;2023-02-15T18:21:14;66.40;;;26.90;;
39880;SDS011;25554;44.954;10.068;2023-02-15T18:23:41;64.82;;;25.42;;
39880;SDS011;25554;44.954;10.068;2023-02-15T18:26:09;61.67;;;25.48;;
39880;SDS011;25554;44.954;10.068;2023-02-15T18:28:43;60.85;;;26.27;;
39880;SDS011;25554;44.954;10.068;2023-02-15T18:31:10;65.82;;;25.15;;
39880;SDS011;25554;44.954;10.068;2023-02-15T18:36:05;70.25;;;26.85;;
39880;SDS011;25554;44.954;10.068;2023-02-15T18:38:33;65.70;;;25.23;;
39880;SDS011;25554;44.954;10.068;2023-02-15T18:40:59;58.80;;;26.30;;
39880;SDS011;25554;44.954;10.068;2023-02-15T18:43:27;72.45;;;26.70;;
39880;SDS011;25554;44.954;10.068;2023-02-15T18:48:20;56.92;;;25.40;;
39880;SDS011;25554;44.954;10.068;2023-02-15T18:50:47;55.83;;;22.98;;
39880;SDS011;25554;44.954;10.068;2023-02-15T18:53:15;61.67;;;25.80;;
39880;SDS011;25554;44.954;10.068;2023-02-15T18:55:44;79.95;;;27.17;;